createdAt,value
2023-03-27T00:01:36.625Z,99635.25
2023-03-27T00:04:06.622Z,99653.50
2023-03-27T00:06:34.729Z,99647.44
2023-03-27T00:09:03.742Z,99666.50
2023-03-27T00:11:33.215Z,99658.69
2023-03-27T00:14:01.369Z,99650.00
2023-03-27T00:16:30.519Z,99659.50
2023-03-27T00:18:58.834Z,99656.03
2023-03-27T00:21:28.522Z,99654.31
2023-03-27T00:23:56.710Z,99662.09
2023-03-27T00:26:25.002Z,99656.88
2023-03-27T00:28:54.902Z,99659.44
2023-03-27T00:31:23.177Z,99649.91
2023-03-27T00:33:51.279Z,99650.75
2023-03-27T00:36:19.346Z,99655.97
2023-03-27T00:38:49.344Z,99650.78
2023-03-27T00:41:17.530Z,99654.25
2023-03-27T00:43:45.824Z,99649.03
2023-03-27T00:46:31.524Z,99644.72
2023-03-27T00:49:03.004Z,99639.50
2023-03-27T00:51:32.584Z,99646.44
2023-03-27T00:54:02.020Z,99642.97
2023-03-27T00:56:30.714Z,99644.69
2023-03-27T00:59:03.336Z,99642.13
2023-03-27T01:01:32.376Z,99642.97
2023-03-27T01:04:03.420Z,99643.00
2023-03-27T01:06:32.383Z,99645.63
2023-03-27T01:09:02.092Z,99638.66
2023-03-27T01:11:41.694Z,99644.78
2023-03-27T01:14:16.661Z,99636.94
2023-03-27T01:16:53.334Z,99639.56
2023-03-27T01:20:02.705Z,99635.25
2023-03-27T01:23:02.287Z,99630.03
2023-03-27T01:25:54.643Z,99631.75
2023-03-27T01:28:39.824Z,99630.03
2023-03-27T01:31:24.363Z,99629.19
2023-03-27T01:34:15.361Z,99637.00
2023-03-27T01:37:02.573Z,99630.06
2023-03-27T01:39:43.317Z,99630.94
2023-03-27T01:42:21.320Z,99628.34
2023-03-27T01:44:53.840Z,99633.53
2023-03-27T01:47:31.865Z,99630.09
2023-03-27T01:50:09.495Z,99636.19
2023-03-27T01:52:43.028Z,99632.69
2023-03-27T01:55:19.321Z,99637.03
2023-03-27T01:57:53.146Z,99636.16
2023-03-27T02:00:27.011Z,99628.34
2023-03-27T02:03:19.100Z,99649.19
2023-03-27T02:05:53.139Z,99635.28
2023-03-27T02:08:26.338Z,99635.28
2023-03-27T02:11:01.793Z,99636.19
2023-03-27T02:13:36.595Z,99626.59
2023-03-27T02:16:07.194Z,99632.69
2023-03-27T02:18:40.742Z,99630.09
2023-03-27T02:21:08.978Z,99629.22
2023-03-27T02:23:38.416Z,99630.97
2023-03-27T02:26:11.649Z,99628.38
2023-03-27T02:29:00.336Z,99626.59
2023-03-27T02:31:48.649Z,99632.69
2023-03-27T02:34:38.307Z,99639.66
2023-03-27T02:37:19.235Z,99633.56
2023-03-27T02:40:15.157Z,99629.22
2023-03-27T02:42:59.460Z,99637.03
2023-03-27T02:45:31.762Z,99626.63
2023-03-27T02:48:04.880Z,99637.03
2023-03-27T02:50:38.184Z,99632.69
2023-03-27T02:53:17.258Z,99636.19
2023-03-27T02:55:51.180Z,99635.34
2023-03-27T02:58:24.947Z,99638.78
2023-03-27T03:01:00.972Z,99630.97
2023-03-27T03:03:42.937Z,99628.41
2023-03-27T03:06:29.878Z,99632.72
2023-03-27T03:09:03.126Z,99628.41
2023-03-27T03:11:31.928Z,99630.13
2023-03-27T03:14:01.694Z,99621.47
2023-03-27T03:16:31.011Z,99620.63
2023-03-27T03:18:59.137Z,99608.50
2023-03-27T03:21:27.253Z,99624.09
2023-03-27T03:23:57.532Z,99626.69
2023-03-27T03:26:28.037Z,99623.22
2023-03-27T03:29:00.985Z,99627.53
2023-03-27T03:31:44.199Z,99625.84
2023-03-27T03:34:14.606Z,99624.94
2023-03-27T03:36:43.157Z,99620.63
2023-03-27T03:39:12.589Z,99627.56
2023-03-27T03:41:40.915Z,99622.34
2023-03-27T03:44:10.020Z,99625.81
2023-03-27T03:46:41.223Z,99637.94
2023-03-27T03:49:10.838Z,99631.00
2023-03-27T03:51:39.031Z,99628.41
2023-03-27T03:54:09.198Z,99626.69
2023-03-27T03:56:41.507Z,99620.59
2023-03-27T03:59:10.092Z,99622.34
2023-03-27T04:01:40.813Z,99630.16
2023-03-27T04:04:09.498Z,99629.28
2023-03-27T04:07:00.504Z,99635.34
2023-03-27T04:09:34.631Z,99624.94
2023-03-27T04:12:29.310Z,99626.66
2023-03-27T04:15:01.909Z,99624.94
2023-03-27T04:18:10.072Z,99622.34
2023-03-27T04:20:39.578Z,99621.47
2023-03-27T04:23:10.965Z,99624.91
2023-03-27T04:25:42.287Z,99617.13
2023-03-27T04:28:16.445Z,99620.59
2023-03-27T04:30:50.634Z,99615.34
2023-03-27T04:33:46.706Z,99615.38
2023-03-27T04:36:33.359Z,99618.00
2023-03-27T04:39:10.513Z,99618.84
2023-03-27T04:41:38.883Z,99624.03
2023-03-27T04:44:09.037Z,99624.06
2023-03-27T04:46:41.421Z,99638.78
2023-03-27T04:49:14.170Z,99625.81
2023-03-27T04:51:57.446Z,99619.72
2023-03-27T04:54:31.752Z,99625.81
2023-03-27T04:57:01.926Z,99626.66
2023-03-27T04:59:31.736Z,99626.69
2023-03-27T05:02:34.524Z,99622.31
2023-03-27T05:05:17.110Z,99618.84
2023-03-27T05:07:46.748Z,99623.16
2023-03-27T05:10:21.707Z,99624.91
2023-03-27T05:12:53.053Z,99624.03
2023-03-27T05:15:22.617Z,99644.88
2023-03-27T05:17:54.496Z,99635.34
2023-03-27T05:20:26.796Z,99639.66
2023-03-27T05:22:56.308Z,99638.78
2023-03-27T05:25:29.949Z,99637.06
2023-03-27T05:28:00.636Z,99639.69
2023-03-27T05:30:32.878Z,99630.13
2023-03-27T05:33:16.503Z,99639.63
2023-03-27T05:35:47.336Z,99645.72
2023-03-27T05:38:16.985Z,99651.81
2023-03-27T05:40:56.979Z,99649.16
2023-03-27T05:43:26.493Z,99650.91
2023-03-27T05:45:54.722Z,99650.03
2023-03-27T05:48:23.087Z,99660.47
2023-03-27T05:50:52.658Z,99652.63
2023-03-27T05:53:28.408Z,99648.34
2023-03-27T05:56:15.632Z,99666.53
2023-03-27T05:59:04.165Z,99665.63
2023-03-27T06:01:36.606Z,99661.31
2023-03-27T06:04:04.990Z,99665.63
2023-03-27T06:06:54.436Z,99668.22
2023-03-27T06:09:22.955Z,99679.50
2023-03-27T06:12:11.389Z,99669.94
2023-03-27T06:14:40.772Z,99671.69
2023-03-27T06:17:30.010Z,99677.72
2023-03-27T06:20:12.568Z,99683.78
2023-03-27T06:22:47.271Z,99692.47
2023-03-27T06:25:17.727Z,99694.22
2023-03-27T06:27:47.499Z,99685.53
2023-03-27T06:30:17.518Z,99684.66
2023-03-27T06:33:01.327Z,99694.22
2023-03-27T06:35:33.352Z,99684.69
2023-03-27T06:38:16.871Z,99695.09
2023-03-27T06:40:45.118Z,99698.56
2023-03-27T06:43:14.261Z,99698.56
2023-03-27T06:45:59.814Z,99698.53
2023-03-27T06:48:28.837Z,99706.34
2023-03-27T06:50:58.546Z,99699.41
2023-03-27T06:53:31.152Z,99702.84
2023-03-27T06:56:02.788Z,99708.91
2023-03-27T06:58:45.020Z,99709.75
2023-03-27T07:01:13.467Z,99696.75
2023-03-27T07:04:00.141Z,99708.03
2023-03-27T07:06:48.992Z,99708.84
2023-03-27T07:09:19.462Z,99707.13
2023-03-27T07:11:59.145Z,99708.88
2023-03-27T07:14:27.435Z,99722.81
2023-03-27T07:16:55.750Z,99721.94
2023-03-27T07:19:25.671Z,99718.47
2023-03-27T07:22:02.147Z,99713.22
2023-03-27T07:24:34.416Z,99705.38
2023-03-27T07:27:03.250Z,99721.00
2023-03-27T07:29:34.027Z,99717.50
2023-03-27T07:32:06.220Z,99720.94
2023-03-27T07:34:41.160Z,99716.50
2023-03-27T07:37:31.099Z,99726.97
2023-03-27T07:40:29.501Z,99719.13
2023-03-27T07:43:27.962Z,99718.22
2023-03-27T07:45:57.860Z,99733.84
2023-03-27T07:48:27.931Z,99732.97
2023-03-27T07:53:33.250Z,99733.91
2023-03-27T07:56:13.931Z,99736.56
2023-03-27T07:58:43.921Z,99735.72
2023-03-27T08:01:18.233Z,99747.84
2023-03-27T08:03:48.658Z,99744.38
2023-03-27T08:06:18.765Z,99741.75
2023-03-27T08:08:47.692Z,99733.94
2023-03-27T08:11:29.609Z,99746.09
2023-03-27T08:13:59.510Z,99737.34
2023-03-27T08:16:30.203Z,99750.41
2023-03-27T08:19:01.381Z,99740.84
2023-03-27T08:21:33.373Z,99753.03
2023-03-27T08:24:04.764Z,99748.72
2023-03-27T08:26:34.656Z,99741.78
2023-03-27T08:29:07.329Z,99752.22
2023-03-27T08:31:36.456Z,99743.56
2023-03-27T08:34:06.674Z,99751.34
2023-03-27T08:36:52.325Z,99776.59
2023-03-27T08:39:22.979Z,99740.09
2023-03-27T08:42:01.958Z,99746.97
2023-03-27T08:44:36.269Z,99743.50
2023-03-27T08:47:16.833Z,99734.81
2023-03-27T08:50:07.899Z,99747.88
2023-03-27T08:52:47.918Z,99736.50
2023-03-27T08:55:33.907Z,99740.03
2023-03-27T08:58:19.593Z,99745.22
2023-03-27T09:00:56.755Z,99747.81
2023-03-27T09:03:30.880Z,99748.66
2023-03-27T09:06:03.996Z,99751.19
2023-03-27T09:08:50.742Z,99768.59
2023-03-27T09:11:33.854Z,99763.41
2023-03-27T09:14:14.671Z,99775.59
2023-03-27T09:16:50.079Z,99762.53
2023-03-27T09:19:45.550Z,99761.66
2023-03-27T09:22:23.006Z,99765.16
2023-03-27T09:25:21.172Z,99757.28
2023-03-27T09:28:19.170Z,99777.25
2023-03-27T09:30:57.363Z,99768.56
2023-03-27T09:33:32.143Z,99764.22
2023-03-27T09:36:01.023Z,99773.78
2023-03-27T09:38:35.138Z,99776.44
2023-03-27T09:41:09.862Z,99771.13
2023-03-27T09:43:42.923Z,99778.97
2023-03-27T09:46:18.171Z,99791.06
2023-03-27T09:48:56.814Z,99771.84
2023-03-27T09:51:42.534Z,99776.09
2023-03-27T09:54:52.871Z,99775.19
2023-03-27T09:57:32.307Z,99780.47
2023-03-27T10:00:07.686Z,99785.72
2023-03-27T10:02:44.159Z,99784.88
2023-03-27T10:05:20.225Z,99791.81
2023-03-27T10:07:53.914Z,99794.44
2023-03-27T10:10:45.903Z,99778.72
2023-03-27T10:13:47.958Z,99784.78
2023-03-27T10:16:21.671Z,99795.19
2023-03-27T10:19:01.801Z,99778.63
2023-03-27T10:21:42.021Z,99794.31
2023-03-27T10:24:22.062Z,99793.47
2023-03-27T10:27:21.645Z,99790.03
2023-03-27T10:30:27.408Z,99796.13
2023-03-27T10:33:02.355Z,99790.94
2023-03-27T10:35:49.604Z,99803.94
2023-03-27T10:38:28.697Z,99810.81
2023-03-27T10:41:28.063Z,99810.75
2023-03-27T10:43:58.857Z,99819.47
2023-03-27T10:46:29.346Z,99824.72
2023-03-27T10:49:17.503Z,99828.25
2023-03-27T10:51:51.774Z,99840.47
2023-03-27T10:54:35.601Z,99824.81
2023-03-27T10:57:11.025Z,99830.13
2023-03-27T10:59:45.023Z,99841.44
2023-03-27T11:02:33.405Z,99841.53
2023-03-27T11:05:05.889Z,99841.53
2023-03-27T11:07:41.663Z,99844.13
2023-03-27T11:10:17.895Z,99848.44
2023-03-27T11:12:56.483Z,99836.22
2023-03-27T11:15:31.724Z,99837.09
2023-03-27T11:18:04.172Z,99839.66
2023-03-27T11:20:46.989Z,99840.56
2023-03-27T11:23:30.139Z,99840.56
2023-03-27T11:26:28.553Z,99836.28
2023-03-27T11:29:04.307Z,99826.75
2023-03-27T11:31:46.693Z,99831.09
2023-03-27T11:34:32.520Z,99843.28
2023-03-27T11:37:25.772Z,99837.19
2023-03-27T11:40:02.289Z,99844.16
2023-03-27T11:42:34.010Z,99836.28
2023-03-27T11:45:04.691Z,99848.38
2023-03-27T11:47:59.794Z,99831.88
2023-03-27T11:50:36.451Z,99843.16
2023-03-27T11:53:35.462Z,99840.63
2023-03-27T11:56:30.241Z,99850.19
2023-03-27T11:59:20.607Z,99849.34
2023-03-27T12:02:02.862Z,99845.84
2023-03-27T12:04:42.573Z,99838.84
2023-03-27T12:07:36.132Z,99874.50
2023-03-27T12:10:27.438Z,99860.66
2023-03-27T12:13:58.157Z,99875.53
2023-03-27T12:16:50.313Z,99879.94
2023-03-27T12:19:41.767Z,99875.56
2023-03-27T12:22:31.399Z,99880.78
2023-03-27T12:25:21.514Z,99895.56
2023-03-27T12:28:23.775Z,99886.84
2023-03-27T12:31:13.482Z,99897.25
2023-03-27T12:33:51.937Z,99891.19
2023-03-27T12:36:24.822Z,99891.22
2023-03-27T12:38:55.924Z,99900.75
2023-03-27T12:41:31.222Z,99899.00
2023-03-27T12:44:06.431Z,99892.94
2023-03-27T12:46:43.971Z,99948.66
2023-03-27T12:49:47.501Z,99935.63
2023-03-27T12:52:25.576Z,99912.19
2023-03-27T12:55:07.759Z,99916.53
2023-03-27T12:57:56.239Z,99907.88
2023-03-27T13:00:55.170Z,99907.91
2023-03-27T13:04:07.372Z,99909.63
2023-03-27T13:06:47.390Z,99919.22
2023-03-27T13:09:33.300Z,99924.41
2023-03-27T13:12:21.593Z,99941.81
2023-03-27T13:15:24.231Z,99917.44
2023-03-27T13:18:10.270Z,99918.31
2023-03-27T13:20:48.258Z,99920.94
2023-03-27T13:23:31.293Z,99934.84
2023-03-27T13:26:15.837Z,99919.22
2023-03-27T13:28:49.083Z,99918.34
2023-03-27T13:31:37.661Z,99925.28
2023-03-27T13:34:39.632Z,99914.84
2023-03-27T13:37:53.972Z,99917.47
2023-03-27T13:40:31.568Z,99917.47
2023-03-27T13:43:26.621Z,99919.19
2023-03-27T13:46:04.187Z,99918.31
2023-03-27T13:49:04.846Z,99923.53
2023-03-27T13:52:08.126Z,99935.72
2023-03-27T13:54:57.436Z,99941.81
2023-03-27T13:57:56.171Z,99947.88
2023-03-27T14:01:00.190Z,99933.97
2023-03-27T14:03:47.608Z,99956.56
2023-03-27T14:07:04.176Z,99935.72
2023-03-27T14:09:46.031Z,99960.06
2023-03-27T14:12:25.375Z,99948.75
2023-03-27T14:15:25.339Z,99947.88
2023-03-27T14:18:44.404Z,99955.72
2023-03-27T14:21:27.592Z,99962.66
2023-03-27T14:24:08.692Z,99951.34
2023-03-27T14:26:46.454Z,99956.56
2023-03-27T14:29:21.274Z,99952.25
2023-03-27T14:31:52.192Z,99966.13
2023-03-27T14:34:51.104Z,99949.63
2023-03-27T14:37:37.103Z,99946.13
2023-03-27T14:40:24.521Z,99948.75
2023-03-27T14:42:56.877Z,99960.03
2023-03-27T14:45:30.151Z,99969.59
2023-03-27T14:48:04.469Z,99967.88
2023-03-27T14:50:44.022Z,99978.31
2023-03-27T14:53:18.926Z,99981.78
2023-03-27T14:56:12.927Z,99990.47
2023-03-27T14:59:08.019Z,99994.81
2023-03-27T15:01:48.796Z,99989.59
2023-03-27T15:04:17.543Z,99977.44
2023-03-27T15:06:49.999Z,99990.47
2023-03-27T15:09:38.540Z,99993.94
2023-03-27T15:12:47.680Z,100002.63
2023-03-27T15:15:34.505Z,100001.75
2023-03-27T15:18:06.141Z,99995.66
2023-03-27T15:20:37.070Z,99994.81
2023-03-27T15:23:13.972Z,99980.88
2023-03-27T15:25:47.186Z,99996.50
2023-03-27T15:28:23.749Z,100006.09
2023-03-27T15:30:55.156Z,99997.38
2023-03-27T15:33:34.388Z,99993.03
2023-03-27T15:36:07.459Z,100006.06
2023-03-27T15:38:37.530Z,100016.47
2023-03-27T15:41:37.542Z,100016.47
2023-03-27T15:44:07.258Z,100017.34
2023-03-27T15:46:45.845Z,100032.13
2023-03-27T15:49:24.232Z,100037.34
2023-03-27T15:51:52.617Z,100024.31
2023-03-27T15:54:26.606Z,100039.09
2023-03-27T15:57:09.661Z,100035.63
2023-03-27T15:59:52.368Z,100037.31
2023-03-27T16:02:24.976Z,100050.34
2023-03-27T16:04:56.633Z,100059.88
2023-03-27T16:07:30.423Z,100051.16
2023-03-27T16:10:02.921Z,100054.66
2023-03-27T16:12:33.673Z,100058.13
2023-03-27T16:15:08.032Z,100065.09
2023-03-27T16:17:44.898Z,100058.97
2023-03-27T16:20:37.327Z,100070.25
2023-03-27T16:23:06.272Z,100075.44
2023-03-27T16:25:34.584Z,100071.06
2023-03-27T16:28:02.989Z,100090.19
2023-03-27T16:30:34.465Z,100080.66
2023-03-27T16:33:03.123Z,100090.25
2023-03-27T16:35:34.085Z,100105.88
2023-03-27T16:38:03.092Z,100098.06
2023-03-27T16:40:31.327Z,100087.63
2023-03-27T16:43:00.001Z,100111.09
2023-03-27T16:45:28.301Z,100111.97
2023-03-27T16:47:56.665Z,100109.34
2023-03-27T16:50:29.080Z,100114.56
2023-03-27T16:52:58.946Z,100112.78
2023-03-27T16:55:27.339Z,100115.41
2023-03-27T16:57:56.224Z,100119.72
2023-03-27T17:00:26.721Z,100126.69
2023-03-27T17:02:55.182Z,100131.03
2023-03-27T17:05:23.445Z,100131.84
2023-03-27T17:07:51.575Z,100131.84
2023-03-27T17:10:21.194Z,100137.03
2023-03-27T17:12:49.264Z,100133.59
2023-03-27T17:15:17.561Z,100138.78
2023-03-27T17:17:46.824Z,100141.38
2023-03-27T17:20:15.493Z,100143.09
2023-03-27T17:22:44.726Z,100146.59
2023-03-27T17:25:13.522Z,100151.78
2023-03-27T17:27:42.978Z,100149.13
2023-03-27T17:30:11.985Z,100165.63
2023-03-27T17:32:40.163Z,100153.44
2023-03-27T17:35:08.837Z,100162.16
2023-03-27T17:37:37.017Z,100163.03
2023-03-27T17:40:09.855Z,100161.28
2023-03-27T17:42:38.369Z,100177.78
2023-03-27T17:45:08.640Z,100176.03
2023-03-27T17:47:37.044Z,100182.13
2023-03-27T17:50:05.820Z,100177.78
2023-03-27T17:52:33.905Z,100182.13
2023-03-27T17:55:02.003Z,100187.34
2023-03-27T17:57:33.050Z,100189.06
2023-03-27T18:00:01.434Z,100193.41
2023-03-27T18:02:30.960Z,100200.34
2023-03-27T18:05:00.266Z,100203.84
2023-03-27T18:07:28.802Z,100211.59
2023-03-27T18:09:56.892Z,100209.84
2023-03-27T18:12:25.072Z,100222.00
2023-03-27T18:14:53.107Z,100225.47
2023-03-27T18:17:21.860Z,100219.38
2023-03-27T18:19:51.291Z,100219.41
2023-03-27T18:22:19.480Z,100212.44
2023-03-27T18:24:47.691Z,100213.31
2023-03-27T18:27:16.516Z,100214.22
2023-03-27T18:29:44.687Z,100236.75
2023-03-27T18:32:12.729Z,100224.63
2023-03-27T18:34:41.349Z,100233.31
2023-03-27T18:37:11.109Z,100248.97
2023-03-27T18:39:40.054Z,100230.72
2023-03-27T18:42:08.770Z,100239.44
2023-03-27T18:44:39.074Z,100242.00
2023-03-27T18:47:08.990Z,100248.06
2023-03-27T18:49:37.275Z,100238.53
2023-03-27T18:52:05.941Z,100252.41
2023-03-27T18:54:37.121Z,100248.09
2023-03-27T18:57:05.681Z,100248.06
2023-03-27T18:59:33.754Z,100262.84
2023-03-27T19:02:01.987Z,100257.63
2023-03-27T19:04:30.533Z,100265.41
2023-03-27T19:06:58.654Z,100263.69
2023-03-27T19:09:34.411Z,100268.06
2023-03-27T19:12:11.495Z,100270.72
2023-03-27T19:15:00.410Z,100271.59
2023-03-27T19:17:38.147Z,100269.88
2023-03-27T19:20:24.940Z,100276.81
2023-03-27T19:23:19.321Z,100285.50
2023-03-27T19:25:52.261Z,100286.38
2023-03-27T19:28:21.857Z,100295.94
2023-03-27T19:30:50.202Z,100286.34
2023-03-27T19:33:18.469Z,100291.53
2023-03-27T19:35:46.872Z,100293.28
2023-03-27T19:38:15.279Z,100300.22
2023-03-27T19:40:46.006Z,100307.19
2023-03-27T19:43:14.294Z,100300.28
2023-03-27T19:45:58.404Z,100302.88
2023-03-27T19:48:32.818Z,100299.38
2023-03-27T19:51:03.991Z,100311.56
2023-03-27T19:53:44.592Z,100314.97
2023-03-27T19:56:12.794Z,100310.63
2023-03-27T19:58:40.934Z,100314.16
2023-03-27T20:01:10.470Z,100321.97
2023-03-27T20:03:39.966Z,100321.13
2023-03-27T20:06:12.951Z,100322.84
2023-03-27T20:08:43.267Z,100323.75
2023-03-27T20:11:14.521Z,100334.16
2023-03-27T20:13:55.316Z,100326.34
2023-03-27T20:16:27.672Z,100330.69
2023-03-27T20:19:03.201Z,100336.84
2023-03-27T20:21:33.812Z,100347.25
2023-03-27T20:24:02.610Z,100348.16
2023-03-27T20:26:38.972Z,100348.13
2023-03-27T20:29:17.262Z,100347.25
2023-03-27T20:31:48.067Z,100350.72
2023-03-27T20:34:19.335Z,100335.06
2023-03-27T20:36:48.254Z,100345.47
2023-03-27T20:39:28.377Z,100342.88
2023-03-27T20:41:58.980Z,100346.34
2023-03-27T20:44:35.158Z,100338.56
2023-03-27T20:47:11.000Z,100347.22
2023-03-27T20:49:42.923Z,100344.66
2023-03-27T20:52:13.455Z,100353.34
2023-03-27T20:54:41.703Z,100348.16
2023-03-27T20:57:12.354Z,100358.59
2023-03-27T20:59:40.547Z,100359.47
2023-03-27T21:02:16.839Z,100360.34
2023-03-27T21:04:46.573Z,100358.66
2023-03-27T21:07:15.848Z,100360.41
2023-03-27T21:09:46.152Z,100355.19
2023-03-27T21:12:14.331Z,100363.00
2023-03-27T21:14:42.268Z,100357.78
2023-03-27T21:17:14.189Z,100359.53
2023-03-27T21:19:42.299Z,100357.81
2023-03-27T21:22:10.352Z,100357.78
2023-03-27T21:24:40.725Z,100349.94
2023-03-27T21:27:08.922Z,100360.41
2023-03-27T21:29:37.040Z,100369.03
2023-03-27T21:32:06.690Z,100353.41
2023-03-27T21:34:36.189Z,100357.78
2023-03-27T21:37:04.587Z,100350.03
2023-03-27T21:39:32.682Z,100357.84
2023-03-27T21:42:00.791Z,100350.94
2023-03-27T21:44:28.895Z,100354.38
2023-03-27T21:46:57.003Z,100356.97
2023-03-27T21:49:25.638Z,100363.06
2023-03-27T21:51:55.109Z,100365.63
2023-03-27T21:54:23.387Z,100373.44
2023-03-27T21:56:51.512Z,100374.34
2023-03-27T21:59:19.649Z,100377.84
2023-03-27T22:01:47.708Z,100383.06
2023-03-27T22:04:15.825Z,100383.88
2023-03-27T22:06:43.985Z,100378.66
2023-03-27T22:09:13.991Z,100378.69
2023-03-27T22:11:42.135Z,100377.84
2023-03-27T22:14:10.283Z,100374.41
2023-03-27T22:16:38.465Z,100378.72
2023-03-27T22:19:06.970Z,100372.66
2023-03-27T22:21:35.125Z,100381.34
2023-03-27T22:24:03.460Z,100380.44
2023-03-27T22:26:38.105Z,100390.03
2023-03-27T22:29:09.139Z,100390.91
2023-03-27T22:31:37.506Z,100384.84
2023-03-27T22:34:06.142Z,100393.50
2023-03-27T22:36:34.451Z,100396.13
2023-03-27T22:39:02.567Z,100394.31
2023-03-27T22:41:31.961Z,100405.63
2023-03-27T22:44:01.828Z,100406.50
2023-03-27T22:46:30.152Z,100409.94
2023-03-27T22:48:59.835Z,100422.13
2023-03-27T22:51:29.636Z,100412.53
2023-03-27T22:53:57.799Z,100406.50
2023-03-27T22:56:26.194Z,100409.09
2023-03-27T22:58:55.722Z,100406.50
2023-03-27T23:01:23.753Z,100404.75
2023-03-27T23:03:51.940Z,100416.03
2023-03-27T23:06:21.747Z,100420.47
2023-03-27T23:08:50.479Z,100420.47
2023-03-27T23:11:19.304Z,100417.91
2023-03-27T23:13:47.698Z,100427.50
2023-03-27T23:16:17.280Z,100430.94
2023-03-27T23:18:45.485Z,100437.06
2023-03-27T23:21:16.677Z,100433.63
2023-03-27T23:23:45.704Z,100430.09
2023-03-27T23:26:14.241Z,100436.19
2023-03-27T23:28:43.352Z,100437.03
2023-03-27T23:31:14.695Z,100438.78
2023-03-27T23:33:46.106Z,100447.50
2023-03-27T23:36:16.233Z,100446.63
2023-03-27T23:38:44.689Z,100443.16
2023-03-27T23:41:14.228Z,100449.28
2023-03-27T23:43:42.920Z,100460.59
2023-03-27T23:46:11.407Z,100458.06
2023-03-27T23:48:40.580Z,100452.03
2023-03-27T23:51:11.337Z,100450.28
2023-03-27T23:53:39.686Z,100449.44
2023-03-27T23:56:08.777Z,100452.94
2023-03-27T23:58:38.243Z,100453.00
